sensor_id;sensor_type;location;lat;lon;timestamp;pressure;altitude;pressure_sealevel;temperature;humidity
64739;BME280;51175;51.186;0.276;2022-12-07T00:00:22;101943.88;;;10.90;72.68
64739;BME280;51175;51.186;0.276;2022-12-07T00:00:54;101939.41;;;10.90;72.79
64739;BME280;51175;51.186;0.276;2022-12-07T00:01:33;101941.00;;;10.91;72.85
64739;BME280;51175;51.186;0.276;2022-12-07T00:02:04;101935.72;;;10.91;72.69
64739;BME280;51175;51.186;0.276;2022-12-07T00:02:35;101932.25;;;10.91;72.73
64739;BME280;51175;51.186;0.276;2022-12-07T00:03:05;101938.34;;;10.91;72.93
64739;BME280;51175;51.186;0.276;2022-12-07T00:03:37;101934.91;;;10.91;72.72
64739;BME280;51175;51.186;0.276;2022-12-07T00:04:12;101934.13;;;10.90;72.82
64739;BME280;51175;51.186;0.276;2022-12-07T00:04:43;101934.91;;;10.91;72.76
64739;BME280;51175;51.186;0.276;2022-12-07T00:05:13;101935.94;;;10.90;72.79
64739;BME280;51175;51.186;0.276;2022-12-07T00:05:44;101932.25;;;10.91;72.83
64739;BME280;51175;51.186;0.276;2022-12-07T00:06:16;101936.75;;;10.90;72.82
64739;BME280;51175;51.186;0.276;2022-12-07T00:06:50;101935.94;;;10.90;72.72
64739;BME280;51175;51.186;0.276;2022-12-07T00:07:22;101938.59;;;10.90;72.76
64739;BME280;51175;51.186;0.276;2022-12-07T00:07:52;101934.34;;;10.89;72.77
64739;BME280;51175;51.186;0.276;2022-12-07T00:08:23;101942.03;;;10.90;72.71
64739;BME280;51175;51.186;0.276;2022-12-07T00:08:53;101932.47;;;10.89;72.65
64739;BME280;51175;51.186;0.276;2022-12-07T00:09:24;101941.22;;;10.90;72.83
64739;BME280;51175;51.186;0.276;2022-12-07T00:09:54;101935.13;;;10.89;73.21
64739;BME280;51175;51.186;0.276;2022-12-07T00:10:25;101939.63;;;10.89;72.99
64739;BME280;51175;51.186;0.276;2022-12-07T00:11:01;101937.75;;;10.89;72.84
64739;BME280;51175;51.186;0.276;2022-12-07T00:11:32;101943.88;;;10.90;72.74
64739;BME280;51175;51.186;0.276;2022-12-07T00:12:03;101936.97;;;10.89;72.76
64739;BME280;51175;51.186;0.276;2022-12-07T00:12:34;101943.06;;;10.89;72.90
64739;BME280;51175;51.186;0.276;2022-12-07T00:13:05;101939.63;;;10.89;72.91
64739;BME280;51175;51.186;0.276;2022-12-07T00:13:36;101935.13;;;10.89;73.06
64739;BME280;51175;51.186;0.276;2022-12-07T01:39:16;101918.44;;;10.77;72.66
64739;BME280;51175;51.186;0.276;2022-12-07T01:39:53;101916.59;;;10.77;72.65
64739;BME280;51175;51.186;0.276;2022-12-07T01:40:23;101924.53;;;10.77;72.59
64739;BME280;51175;51.186;0.276;2022-12-07T01:40:55;101918.44;;;10.77;72.64
64739;BME280;51175;51.186;0.276;2022-12-07T01:41:28;101919.25;;;10.77;72.70
64739;BME280;51175;51.186;0.276;2022-12-07T01:41:59;101921.88;;;10.77;72.43
64739;BME280;51175;51.186;0.276;2022-12-07T01:42:30;101924.53;;;10.77;72.63
64739;BME280;51175;51.186;0.276;2022-12-07T01:43:00;101924.53;;;10.77;72.51
64739;BME280;51175;51.186;0.276;2022-12-07T01:43:33;101926.34;;;10.77;72.55
64739;BME280;51175;51.186;0.276;2022-12-07T01:44:30;101926.34;;;10.77;72.50
64739;BME280;51175;51.186;0.276;2022-12-07T01:45:47;101921.06;;;10.77;72.33
64739;BME280;51175;51.186;0.276;2022-12-07T01:46:18;101921.06;;;10.77;72.30
64739;BME280;51175;51.186;0.276;2022-12-07T01:47:18;101921.28;;;10.75;72.43
64739;BME280;51175;51.186;0.276;2022-12-07T01:47:56;101928.22;;;10.76;72.33
64739;BME280;51175;51.186;0.276;2022-12-07T01:49:03;101923.94;;;10.75;72.49
64739;BME280;51175;51.186;0.276;2022-12-07T01:49:46;101919.69;;;10.74;72.33
64739;BME280;51175;51.186;0.276;2022-12-07T01:50:19;101925.78;;;10.75;72.57
64739;BME280;51175;51.186;0.276;2022-12-07T01:50:53;101919.69;;;10.74;72.50
64739;BME280;51175;51.186;0.276;2022-12-07T01:51:25;101926.03;;;10.73;72.30
64739;BME280;51175;51.186;0.276;2022-12-07T01:52:18;101924.16;;;10.74;72.45
64739;BME280;51175;51.186;0.276;2022-12-07T01:52:51;101918.88;;;10.74;72.50
64739;BME280;51175;51.186;0.276;2022-12-07T01:53:26;101917.28;;;10.73;72.62
64739;BME280;51175;51.186;0.276;2022-12-07T01:53:59;101927.84;;;10.73;72.61
64739;BME280;51175;51.186;0.276;2022-12-07T01:54:32;101919.91;;;10.73;72.56
64739;BME280;51175;51.186;0.276;2022-12-07T01:55:09;101926.03;;;10.73;72.48
64739;BME280;51175;51.186;0.276;2022-12-07T01:55:43;101920.97;;;10.72;72.51
64739;BME280;51175;51.186;0.276;2022-12-07T01:56:18;101923.59;;;10.72;72.44
64739;BME280;51175;51.186;0.276;2022-12-07T01:56:53;101929.69;;;10.72;72.42
64739;BME280;51175;51.186;0.276;2022-12-07T01:57:25;101931.53;;;10.72;72.43
64739;BME280;51175;51.186;0.276;2022-12-07T01:57:56;101924.63;;;10.71;72.53
64739;BME280;51175;51.186;0.276;2022-12-07T01:58:28;101918.31;;;10.72;72.61
64739;BME280;51175;51.186;0.276;2022-12-07T01:58:59;101928.06;;;10.71;72.45
64739;BME280;51175;51.186;0.276;2022-12-07T01:59:30;101928.06;;;10.71;72.74
64739;BME280;51175;51.186;0.276;2022-12-07T02:00:01;101932.31;;;10.72;72.55
64739;BME280;51175;51.186;0.276;2022-12-07T02:00:32;101921.97;;;10.71;72.51
64739;BME280;51175;51.186;0.276;2022-12-07T02:01:03;101924.38;;;10.72;72.61
64739;BME280;51175;51.186;0.276;2022-12-07T02:01:34;101920.16;;;10.71;72.59
64739;BME280;51175;51.186;0.276;2022-12-07T02:02:08;101926.25;;;10.72;72.69
64739;BME280;51175;51.186;0.276;2022-12-07T02:02:54;101932.31;;;10.72;72.61
64739;BME280;51175;51.186;0.276;2022-12-07T02:03:36;101922.56;;;10.73;72.60
64739;BME280;51175;51.186;0.276;2022-12-07T02:04:08;101928.88;;;10.72;72.51
64739;BME280;51175;51.186;0.276;2022-12-07T02:04:39;101927.84;;;10.73;72.45
64739;BME280;51175;51.186;0.276;2022-12-07T02:05:10;101921.97;;;10.71;72.62
64739;BME280;51175;51.186;0.276;2022-12-07T02:05:43;101923.38;;;10.73;72.59
64739;BME280;51175;51.186;0.276;2022-12-07T02:06:17;101919.91;;;10.73;72.76
64739;BME280;51175;51.186;0.276;2022-12-07T02:06:50;101919.91;;;10.73;72.50
64739;BME280;51175;51.186;0.276;2022-12-07T02:07:20;101929.69;;;10.72;72.51
64739;BME280;51175;51.186;0.276;2022-12-07T02:07:54;101922.56;;;10.73;72.60
64739;BME280;51175;51.186;0.276;2022-12-07T02:08:25;101927.84;;;10.73;72.51
64739;BME280;51175;51.186;0.276;2022-12-07T02:08:56;101924.38;;;10.72;72.48
64739;BME280;51175;51.186;0.276;2022-12-07T02:09:26;101924.38;;;10.72;72.61
64739;BME280;51175;51.186;0.276;2022-12-07T02:09:57;101922.56;;;10.73;72.63
64739;BME280;51175;51.186;0.276;2022-12-07T02:10:29;101919.09;;;10.72;72.33
64739;BME280;51175;51.186;0.276;2022-12-07T02:11:02;101919.91;;;10.73;72.29
64739;BME280;51175;51.186;0.276;2022-12-07T02:11:33;101917.28;;;10.73;72.34
64739;BME280;51175;51.186;0.276;2022-12-07T02:12:04;101915.69;;;10.72;72.36
64739;BME280;51175;51.186;0.276;2022-12-07T02:12:35;101916.47;;;10.72;72.47
64739;BME280;51175;51.186;0.276;2022-12-07T02:13:24;101922.56;;;10.73;72.54
64739;BME280;51175;51.186;0.276;2022-12-07T02:13:55;101912.00;;;10.73;72.42
64739;BME280;51175;51.186;0.276;2022-12-07T02:14:26;101912.22;;;10.71;72.51
64739;BME280;51175;51.186;0.276;2022-12-07T02:14:56;101919.09;;;10.72;72.38
64739;BME280;51175;51.186;0.276;2022-12-07T02:17:52;101914.88;;;10.71;72.20
64739;BME280;51175;51.186;0.276;2022-12-07T02:21:02;101910.84;;;10.68;72.33
64739;BME280;51175;51.186;0.276;2022-12-07T02:21:57;101916.13;;;10.68;72.47
64739;BME280;51175;51.186;0.276;2022-12-07T02:25:30;101908.84;;;10.64;72.23
64739;BME280;51175;51.186;0.276;2022-12-07T02:27:46;101901.16;;;10.62;72.50
64739;BME280;51175;51.186;0.276;2022-12-07T02:29:22;101907.47;;;10.61;72.54
64739;BME280;51175;51.186;0.276;2022-12-07T02:30:00;101899.53;;;10.61;72.60
64739;BME280;51175;51.186;0.276;2022-12-07T02:30:35;101904.00;;;10.61;72.63
64739;BME280;51175;51.186;0.276;2022-12-07T02:31:14;101896.09;;;10.61;72.51
64739;BME280;51175;51.186;0.276;2022-12-07T02:32:13;101899.53;;;10.61;72.48
64739;BME280;51175;51.186;0.276;2022-12-07T02:32:56;101897.94;;;10.60;72.43
64739;BME280;51175;51.186;0.276;2022-12-07T02:33:35;101894.47;;;10.60;72.44
64739;BME280;51175;51.186;0.276;2022-12-07T02:34:19;101892.88;;;10.59;72.48
64739;BME280;51175;51.186;0.276;2022-12-07T02:34:54;101898.16;;;10.59;72.54
64739;BME280;51175;51.186;0.276;2022-12-07T02:35:33;101901.59;;;10.59;72.59
64739;BME280;51175;51.186;0.276;2022-12-07T02:36:12;101903.22;;;10.60;72.66
64739;BME280;51175;51.186;0.276;2022-12-07T02:36:54;101904.81;;;10.61;72.52
64739;BME280;51175;51.186;0.276;2022-12-07T02:38:26;101897.94;;;10.60;72.54
64739;BME280;51175;51.186;0.276;2022-12-07T02:39:15;101897.72;;;10.62;72.58
64739;BME280;51175;51.186;0.276;2022-12-07T02:39:52;101908.28;;;10.62;72.66
64739;BME280;51175;51.186;0.276;2022-12-07T02:40:33;101901.38;;;10.61;72.61
64739;BME280;51175;51.186;0.276;2022-12-07T02:41:25;101896.91;;;10.61;72.56
64739;BME280;51175;51.186;0.276;2022-12-07T02:42:07;101899.53;;;10.61;72.55
64739;BME280;51175;51.186;0.276;2022-12-07T02:42:47;101901.16;;;10.62;72.34
64739;BME280;51175;51.186;0.276;2022-12-07T02:43:27;101896.09;;;10.61;72.65
64739;BME280;51175;51.186;0.276;2022-12-07T02:44:01;101899.53;;;10.61;72.50
64739;BME280;51175;51.186;0.276;2022-12-07T02:44:32;101894.25;;;10.61;72.65
64739;BME280;51175;51.186;0.276;2022-12-07T02:45:05;101896.09;;;10.61;72.48
64739;BME280;51175;51.186;0.276;2022-12-07T02:45:39;101899.53;;;10.61;72.54
64739;BME280;51175;51.186;0.276;2022-12-07T02:46:19;101895.84;;;10.62;72.65
64739;BME280;51175;51.186;0.276;2022-12-07T02:46:54;101898.50;;;10.62;72.57
64739;BME280;51175;51.186;0.276;2022-12-07T02:47:29;101898.72;;;10.61;72.66
64739;BME280;51175;51.186;0.276;2022-12-07T02:48:02;101896.09;;;10.61;72.44
64739;BME280;51175;51.186;0.276;2022-12-07T02:48:33;101895.31;;;10.60;72.57
64739;BME280;51175;51.186;0.276;2022-12-07T02:49:05;101904.00;;;10.61;72.48
64739;BME280;51175;51.186;0.276;2022-12-07T02:49:37;101900.59;;;10.60;72.26
64739;BME280;51175;51.186;0.276;2022-12-07T02:50:09;101893.66;;;10.59;72.69
64739;BME280;51175;51.186;0.276;2022-12-07T02:50:51;101900.59;;;10.60;72.63
64739;BME280;51175;51.186;0.276;2022-12-07T02:51:22;101899.78;;;10.60;72.54
64739;BME280;51175;51.186;0.276;2022-12-07T02:51:53;101902.19;;;10.61;72.59
64739;BME280;51175;51.186;0.276;2022-12-07T02:52:23;101899.78;;;10.60;72.71
64739;BME280;51175;51.186;0.276;2022-12-07T02:52:54;101897.13;;;10.60;72.58
64739;BME280;51175;51.186;0.276;2022-12-07T02:53:43;101896.91;;;10.61;72.50
64739;BME280;51175;51.186;0.276;2022-12-07T02:54:16;101897.94;;;10.60;72.39
64739;BME280;51175;51.186;0.276;2022-12-07T02:54:47;101898.72;;;10.61;72.33
64739;BME280;51175;51.186;0.276;2022-12-07T02:55:21;101897.94;;;10.60;72.26
64739;BME280;51175;51.186;0.276;2022-12-07T02:55:53;101897.94;;;10.60;72.45
64739;BME280;51175;51.186;0.276;2022-12-07T02:58:32;101895.31;;;10.60;72.13
64739;BME280;51175;51.186;0.276;2022-12-07T03:00:08;101895.53;;;10.59;72.35
64739;BME280;51175;51.186;0.276;2022-12-07T03:00:54;101891.03;;;10.59;72.43
64739;BME280;51175;51.186;0.276;2022-12-07T03:02:40;101891.25;;;10.58;72.31
64739;BME280;51175;51.186;0.276;2022-12-07T03:03:15;101891.47;;;10.56;72.20
64739;BME280;51175;51.186;0.276;2022-12-07T03:03:52;101894.13;;;10.56;72.29
64739;BME280;51175;51.186;0.276;2022-12-07T03:06:37;101889.06;;;10.54;72.46
64739;BME280;51175;51.186;0.276;2022-12-07T03:07:34;101884.81;;;10.53;72.48
64739;BME280;51175;51.186;0.276;2022-12-07T03:09:35;101884.00;;;10.53;72.47
64739;BME280;51175;51.186;0.276;2022-12-07T03:11:05;101879.75;;;10.52;72.13
64739;BME280;51175;51.186;0.276;2022-12-07T03:11:29;101882.41;;;10.52;72.32
64739;BME280;51175;51.186;0.276;2022-12-07T03:12:20;101878.16;;;10.51;72.18
64739;BME280;51175;51.186;0.276;2022-12-07T03:13:59;101881.03;;;10.49;72.19
64739;BME280;51175;51.186;0.276;2022-12-07T03:14:36;101875.75;;;10.49;72.45
64739;BME280;51175;51.186;0.276;2022-12-07T03:15:26;101877.56;;;10.49;72.63
64739;BME280;51175;51.186;0.276;2022-12-07T03:16:41;101882.03;;;10.48;72.65
64739;BME280;51175;51.186;0.276;2022-12-07T03:17:18;101879.38;;;10.48;72.70
64739;BME280;51175;51.186;0.276;2022-12-07T03:17:51;101874.94;;;10.49;72.61
64739;BME280;51175;51.186;0.276;2022-12-07T03:18:25;101876.75;;;10.48;72.60
64739;BME280;51175;51.186;0.276;2022-12-07T03:19:09;101882.03;;;10.48;72.58
64739;BME280;51175;51.186;0.276;2022-12-07T03:19:42;101877.78;;;10.47;72.57
64739;BME280;51175;51.186;0.276;2022-12-07T03:20:18;101876.97;;;10.47;72.58
64739;BME280;51175;51.186;0.276;2022-12-07T03:20:53;101879.38;;;10.48;72.59
64739;BME280;51175;51.186;0.276;2022-12-07T03:21:32;101883.88;;;10.48;72.66
64739;BME280;51175;51.186;0.276;2022-12-07T03:22:08;101873.31;;;10.48;72.68
64739;BME280;51175;51.186;0.276;2022-12-07T03:22:41;101870.69;;;10.48;72.70
64739;BME280;51175;51.186;0.276;2022-12-07T03:23:14;101883.88;;;10.48;72.56
64739;BME280;51175;51.186;0.276;2022-12-07T03:23:51;101880.22;;;10.49;72.59
64739;BME280;51175;51.186;0.276;2022-12-07T03:24:31;101875.97;;;10.48;72.70
64739;BME280;51175;51.186;0.276;2022-12-07T03:25:10;101874.94;;;10.49;72.64
64739;BME280;51175;51.186;0.276;2022-12-07T03:25:45;101880.22;;;10.49;72.52
64739;BME280;51175;51.186;0.276;2022-12-07T03:26:19;101875.75;;;10.49;72.62
64739;BME280;51175;51.186;0.276;2022-12-07T03:26:56;101873.09;;;10.49;72.54
64739;BME280;51175;51.186;0.276;2022-12-07T03:27:34;101874.94;;;10.49;72.44
64739;BME280;51175;51.186;0.276;2022-12-07T03:28:07;101878.38;;;10.49;72.34
64739;BME280;51175;51.186;0.276;2022-12-07T03:28:43;101875.75;;;10.49;72.56
64739;BME280;51175;51.186;0.276;2022-12-07T03:29:40;101880.22;;;10.49;72.32
64739;BME280;51175;51.186;0.276;2022-12-07T03:30:17;101886.31;;;10.49;72.39
64739;BME280;51175;51.186;0.276;2022-12-07T03:31:05;101879.38;;;10.48;72.31
64739;BME280;51175;51.186;0.276;2022-12-07T03:31:48;101879.38;;;10.48;72.62
64739;BME280;51175;51.186;0.276;2022-12-07T03:32:30;101879.38;;;10.48;72.52
64739;BME280;51175;51.186;0.276;2022-12-07T03:33:07;101874.09;;;10.48;72.50
64739;BME280;51175;51.186;0.276;2022-12-07T03:34:27;101874.09;;;10.48;72.52
64739;BME280;51175;51.186;0.276;2022-12-07T03:35:49;101875.97;;;10.48;72.33
64739;BME280;51175;51.186;0.276;2022-12-07T03:36:55;101868.81;;;10.48;72.25
64739;BME280;51175;51.186;0.276;2022-12-07T03:38:32;101865.41;;;10.48;72.27
64739;BME280;51175;51.186;0.276;2022-12-07T03:39:27;101863.78;;;10.47;72.44
64739;BME280;51175;51.186;0.276;2022-12-07T03:40:39;101876.19;;;10.46;72.47
64739;BME280;51175;51.186;0.276;2022-12-07T03:41:37;101866.59;;;10.45;72.40
64739;BME280;51175;51.186;0.276;2022-12-07T03:42:09;101874.53;;;10.45;72.35
64739;BME280;51175;51.186;0.276;2022-12-07T03:42:41;101871.09;;;10.45;72.42
64739;BME280;51175;51.186;0.276;2022-12-07T03:43:12;101879.03;;;10.45;72.48
64739;BME280;51175;51.186;0.276;2022-12-07T03:43:43;101870.28;;;10.44;72.62
64739;BME280;51175;51.186;0.276;2022-12-07T03:44:15;101875.56;;;10.44;72.66
64739;BME280;51175;51.186;0.276;2022-12-07T03:44:46;101875.56;;;10.44;72.64
64739;BME280;51175;51.186;0.276;2022-12-07T03:45:17;101870.28;;;10.44;72.67
64739;BME280;51175;51.186;0.276;2022-12-07T03:47:46;101862.38;;;10.44;72.28
64739;BME280;51175;51.186;0.276;2022-12-07T03:49:00;101866.03;;;10.43;72.49
64739;BME280;51175;51.186;0.276;2022-12-07T03:49:40;101866.03;;;10.43;72.47
64739;BME280;51175;51.186;0.276;2022-12-07T03:51:07;101869.69;;;10.42;72.39
64739;BME280;51175;51.186;0.276;2022-12-07T03:52:42;101863.41;;;10.43;72.48
64739;BME280;51175;51.186;0.276;2022-12-07T03:53:31;101868.69;;;10.43;72.23
64739;BME280;51175;51.186;0.276;2022-12-07T03:54:19;101872.34;;;10.42;72.42
64739;BME280;51175;51.186;0.276;2022-12-07T03:55:10;101863.63;;;10.41;72.31
64739;BME280;51175;51.186;0.276;2022-12-07T03:55:43;101861.22;;;10.40;72.35
64739;BME280;51175;51.186;0.276;2022-12-07T03:56:15;101864.63;;;10.40;72.42
64739;BME280;51175;51.186;0.276;2022-12-07T03:56:46;101868.91;;;10.41;72.67
64739;BME280;51175;51.186;0.276;2022-12-07T03:57:18;101859.34;;;10.40;72.86
64739;BME280;51175;51.186;0.276;2022-12-07T03:57:52;101863.84;;;10.40;72.81
64739;BME280;51175;51.186;0.276;2022-12-07T03:58:25;101862.81;;;10.41;72.52
64739;BME280;51175;51.186;0.276;2022-12-07T03:58:55;101862.81;;;10.41;72.54
64739;BME280;51175;51.186;0.276;2022-12-07T03:59:26;101867.28;;;10.40;72.47
64739;BME280;51175;51.186;0.276;2022-12-07T03:59:57;101860.16;;;10.41;72.68
64739;BME280;51175;51.186;0.276;2022-12-07T04:00:28;101861.78;;;10.42;72.54
64739;BME280;51175;51.186;0.276;2022-12-07T04:00:59;101866.03;;;10.43;72.69
64739;BME280;51175;51.186;0.276;2022-12-07T04:01:31;101859.94;;;10.42;72.75
64739;BME280;51175;51.186;0.276;2022-12-07T04:02:04;101863.41;;;10.43;72.67
64739;BME280;51175;51.186;0.276;2022-12-07T04:02:35;101862.59;;;10.42;72.47
64739;BME280;51175;51.186;0.276;2022-12-07T04:03:06;101858.34;;;10.41;72.46
64739;BME280;51175;51.186;0.276;2022-12-07T04:03:36;101866.81;;;10.43;72.44
64739;BME280;51175;51.186;0.276;2022-12-07T04:04:06;101853.84;;;10.42;72.41
64739;BME280;51175;51.186;0.276;2022-12-07T04:04:37;101860.75;;;10.43;72.53
64739;BME280;51175;51.186;0.276;2022-12-07T04:05:08;101866.81;;;10.43;72.51
64739;BME280;51175;51.186;0.276;2022-12-07T04:05:39;101862.38;;;10.44;72.47
64739;BME280;51175;51.186;0.276;2022-12-07T04:06:09;101857.31;;;10.42;72.45
64739;BME280;51175;51.186;0.276;2022-12-07T04:06:40;101862.38;;;10.44;72.51
64739;BME280;51175;51.186;0.276;2022-12-07T04:07:11;101856.25;;;10.43;72.41
64739;BME280;51175;51.186;0.276;2022-12-07T04:07:43;101851.78;;;10.44;72.62
64739;BME280;51175;51.186;0.276;2022-12-07T04:08:13;101865.00;;;10.44;72.43
64739;BME280;51175;51.186;0.276;2022-12-07T04:08:44;101868.25;;;10.46;72.42
64739;BME280;51175;51.186;0.276;2022-12-07T04:09:15;101861.31;;;10.45;72.47
64739;BME280;51175;51.186;0.276;2022-12-07T04:09:45;101865.00;;;10.44;72.21
64739;BME280;51175;51.186;0.276;2022-12-07T04:10:17;101852.63;;;10.45;72.36
64739;BME280;51175;51.186;0.276;2022-12-07T04:10:48;101854.22;;;10.46;72.41
64739;BME280;51175;51.186;0.276;2022-12-07T04:11:18;101858.69;;;10.45;72.49
64739;BME280;51175;51.186;0.276;2022-12-07T04:11:49;101859.50;;;10.46;72.30
64739;BME280;51175;51.186;0.276;2022-12-07T04:12:19;101852.63;;;10.45;72.27
64739;BME280;51175;51.186;0.276;2022-12-07T04:12:50;101859.31;;;10.47;72.41
64739;BME280;51175;51.186;0.276;2022-12-07T04:13:20;101863.78;;;10.47;72.30
64739;BME280;51175;51.186;0.276;2022-12-07T04:13:51;101857.47;;;10.48;72.35
64739;BME280;51175;51.186;0.276;2022-12-07T04:14:40;101854.22;;;10.46;72.23
64739;BME280;51175;51.186;0.276;2022-12-07T04:15:10;101853.41;;;10.45;72.29
64739;BME280;51175;51.186;0.276;2022-12-07T04:15:41;101863.19;;;10.45;72.26
64739;BME280;51175;51.186;0.276;2022-12-07T04:16:11;101856.03;;;10.45;72.04
64739;BME280;51175;51.186;0.276;2022-12-07T04:16:42;101861.31;;;10.45;72.25
64739;BME280;51175;51.186;0.276;2022-12-07T04:17:12;101863.19;;;10.45;72.23
64739;BME280;51175;51.186;0.276;2022-12-07T04:17:43;101861.31;;;10.45;72.40
64739;BME280;51175;51.186;0.276;2022-12-07T04:18:13;101861.53;;;10.43;72.29
64739;BME280;51175;51.186;0.276;2022-12-07T04:18:43;101865.00;;;10.44;72.25
64739;BME280;51175;51.186;0.276;2022-12-07T04:19:15;101863.19;;;10.45;72.30
64739;BME280;51175;51.186;0.276;2022-12-07T04:19:45;101865.00;;;10.44;72.47
64739;BME280;51175;51.186;0.276;2022-12-07T04:20:16;101858.91;;;10.43;72.18
64739;BME280;51175;51.186;0.276;2022-12-07T04:20:47;101866.81;;;10.43;72.48
64739;BME280;51175;51.186;0.276;2022-12-07T04:21:17;101858.13;;;10.43;72.40
64739;BME280;51175;51.186;0.276;2022-12-07T04:21:47;101859.94;;;10.42;72.34
64739;BME280;51175;51.186;0.276;2022-12-07T04:22:18;101858.91;;;10.43;72.40
64739;BME280;51175;51.186;0.276;2022-12-07T04:22:48;101866.03;;;10.43;72.39
64739;BME280;51175;51.186;0.276;2022-12-07T04:23:19;101863.41;;;10.43;72.31
64739;BME280;51175;51.186;0.276;2022-12-07T04:23:49;101858.91;;;10.43;72.21
64739;BME280;51175;51.186;0.276;2022-12-07T04:24:20;101858.13;;;10.43;72.41
64739;BME280;51175;51.186;0.276;2022-12-07T04:24:50;101865.00;;;10.44;72.26
64739;BME280;51175;51.186;0.276;2022-12-07T04:25:20;101866.81;;;10.43;72.44
64739;BME280;51175;51.186;0.276;2022-12-07T04:25:51;101860.75;;;10.43;72.31
64739;BME280;51175;51.186;0.276;2022-12-07T04:26:21;101857.31;;;10.42;72.24
64739;BME280;51175;51.186;0.276;2022-12-07T04:26:52;101872.94;;;10.44;72.44
64739;BME280;51175;51.186;0.276;2022-12-07T04:27:22;101866.81;;;10.43;72.51
64739;BME280;51175;51.186;0.276;2022-12-07T04:27:53;101854.66;;;10.42;72.43
64739;BME280;51175;51.186;0.276;2022-12-07T04:28:24;101866.81;;;10.43;72.53
64739;BME280;51175;51.186;0.276;2022-12-07T04:28:54;101866.81;;;10.43;72.40
64739;BME280;51175;51.186;0.276;2022-12-07T04:29:25;101867.66;;;10.44;72.39
64739;BME280;51175;51.186;0.276;2022-12-07T04:29:56;101865.00;;;10.44;72.39
64739;BME280;51175;51.186;0.276;2022-12-07T04:30:26;101861.53;;;10.43;72.26
64739;BME280;51175;51.186;0.276;2022-12-07T04:30:57;101863.97;;;10.45;72.34
64739;BME280;51175;51.186;0.276;2022-12-07T04:31:27;101863.19;;;10.45;72.40
64739;BME280;51175;51.186;0.276;2022-12-07T04:31:57;101869.47;;;10.43;72.50
64739;BME280;51175;51.186;0.276;2022-12-07T04:32:28;101856.03;;;10.45;72.64
64739;BME280;51175;51.186;0.276;2022-12-07T04:32:58;101863.19;;;10.45;72.45
64739;BME280;51175;51.186;0.276;2022-12-07T04:33:29;101865.00;;;10.44;72.71
64739;BME280;51175;51.186;0.276;2022-12-07T04:33:59;101862.38;;;10.44;72.69
64739;BME280;51175;51.186;0.276;2022-12-07T04:34:30;101861.53;;;10.43;72.72
64739;BME280;51175;51.186;0.276;2022-12-07T04:35:00;101865.00;;;10.44;72.46
64739;BME280;51175;51.186;0.276;2022-12-07T04:35:31;101864.19;;;10.43;72.41
64739;BME280;51175;51.186;0.276;2022-12-07T04:36:01;101867.88;;;10.42;72.43
64739;BME280;51175;51.186;0.276;2022-12-07T04:36:32;101868.69;;;10.43;72.55
64739;BME280;51175;51.186;0.276;2022-12-07T04:37:03;101869.47;;;10.43;72.36
64739;BME280;51175;51.186;0.276;2022-12-07T04:37:33;101865.22;;;10.42;72.39
64739;BME280;51175;51.186;0.276;2022-12-07T04:38:04;101869.47;;;10.43;72.40
64739;BME280;51175;51.186;0.276;2022-12-07T04:38:34;101868.69;;;10.43;72.28
64739;BME280;51175;51.186;0.276;2022-12-07T04:39:06;101863.41;;;10.43;72.26
64739;BME280;51175;51.186;0.276;2022-12-07T04:39:37;101866.03;;;10.43;72.07
64739;BME280;51175;51.186;0.276;2022-12-07T04:40:08;101872.09;;;10.43;72.38
64739;BME280;51175;51.186;0.276;2022-12-07T04:40:41;101870.28;;;10.44;72.16
64739;BME280;51175;51.186;0.276;2022-12-07T04:41:11;101872.09;;;10.43;71.87
64739;BME280;51175;51.186;0.276;2022-12-07T04:41:41;101864.19;;;10.43;72.20
64739;BME280;51175;51.186;0.276;2022-12-07T04:42:12;101869.69;;;10.42;72.17
64739;BME280;51175;51.186;0.276;2022-12-07T04:42:45;101866.81;;;10.43;72.35
64739;BME280;51175;51.186;0.276;2022-12-07T04:43:15;101870.50;;;10.42;72.41
64739;BME280;51175;51.186;0.276;2022-12-07T04:43:46;101873.16;;;10.42;72.33
64739;BME280;51175;51.186;0.276;2022-12-07T04:44:18;101869.69;;;10.42;72.34
64739;BME280;51175;51.186;0.276;2022-12-07T04:44:48;101868.09;;;10.41;72.10
64739;BME280;51175;51.186;0.276;2022-12-07T04:45:19;101869.69;;;10.42;72.19
64739;BME280;51175;51.186;0.276;2022-12-07T04:45:49;101871.56;;;10.41;72.17
64739;BME280;51175;51.186;0.276;2022-12-07T04:46:22;101872.56;;;10.40;72.06
64739;BME280;51175;51.186;0.276;2022-12-07T04:46:54;101870.72;;;10.41;72.31
64739;BME280;51175;51.186;0.276;2022-12-07T04:47:25;101872.56;;;10.40;72.26
64739;BME280;51175;51.186;0.276;2022-12-07T04:47:55;101867.28;;;10.40;72.40
64739;BME280;51175;51.186;0.276;2022-12-07T04:48:26;101871.78;;;10.40;72.29
64739;BME280;51175;51.186;0.276;2022-12-07T04:48:56;101870.97;;;10.39;72.47
64739;BME280;51175;51.186;0.276;2022-12-07T04:49:27;101875.19;;;10.40;72.67
64739;BME280;51175;51.186;0.276;2022-12-07T04:49:57;101876.00;;;10.41;72.58
64739;BME280;51175;51.186;0.276;2022-12-07T04:50:27;101869.13;;;10.40;72.63
64739;BME280;51175;51.186;0.276;2022-12-07T04:50:58;101870.72;;;10.41;72.63
64739;BME280;51175;51.186;0.276;2022-12-07T04:51:28;101869.13;;;10.40;72.71
64739;BME280;51175;51.186;0.276;2022-12-07T04:51:59;101870.97;;;10.39;72.54
64739;BME280;51175;51.186;0.276;2022-12-07T04:52:29;101870.72;;;10.41;72.44
64739;BME280;51175;51.186;0.276;2022-12-07T04:53:00;101873.59;;;10.39;72.47
64739;BME280;51175;51.186;0.276;2022-12-07T04:53:30;101867.28;;;10.40;72.40
64739;BME280;51175;51.186;0.276;2022-12-07T04:54:01;101875.19;;;10.40;72.50
64739;BME280;51175;51.186;0.276;2022-12-07T04:54:31;101869.91;;;10.40;72.42
64739;BME280;51175;51.186;0.276;2022-12-07T04:55:02;101873.38;;;10.41;72.37